Time;durP1;ratioP1;P1;durP2;ratioP2;P2;SDS_P1;SDS_P2;PMS_P1;PMS_P2;Temp;Humidity;BMP_temperature;BMP_pressure;BME280_temperature;BME280_humidity;BME280_pressure;Samples;Min_cycle;Max_cycle;Signal;HPM_P1;HPM_P2
2023/03/28 00:02:15;;;;;;;3.97;2.60;;;;;;;1.23;83.92;96306.22;6094975;23;20603;-88
2023/03/28 00:05:01;;;;;;;4.83;2.30;;;;;;;1.30;83.66;96317.84;6095006;23;20308;-86
2023/03/28 00:07:35;;;;;;;3.93;2.30;;;;;;;1.33;84.14;96317.72;6095409;23;20164;-87
2023/03/28 00:10:39;;;;;;;3.73;2.43;;;;;;;1.41;83.99;96320.75;6096040;23;20178;-87
2023/03/28 00:13:18;;;;;;;5.53;2.43;;;;;;;1.37;84.13;96310.72;6095543;23;20160;-86
2023/03/28 00:15:51;;;;;;;6.53;3.00;;;;;;;1.28;84.64;96326.50;6095196;23;20614;-86
2023/03/28 00:18:37;;;;;;;5.53;3.00;;;;;;;1.26;84.38;96325.75;6096032;23;20282;-86
2023/03/28 00:21:45;;;;;;;6.13;3.47;;;;;;;1.29;83.64;96316.19;6095391;23;20192;-86
2023/03/28 00:24:37;;;;;;;6.40;2.40;;;;;;;1.37;83.92;96324.34;6064940;23;20165;-87
2023/03/28 00:27:31;;;;;;;3.17;2.27;;;;;;;1.30;83.84;96332.38;6043630;23;20243;-89
2023/03/28 00:30:14;;;;;;;3.23;2.00;;;;;;;1.16;83.48;96333.03;6041788;23;20157;-87
2023/03/28 00:32:48;;;;;;;5.00;2.50;;;;;;;1.22;83.37;96330.16;6033240;23;20165;-87
2023/03/28 00:35:19;;;;;;;2.77;2.10;;;;;;;1.29;83.30;96335.84;6041516;23;20157;-86
2023/03/28 00:37:57;;;;;;;6.47;2.87;;;;;;;1.32;83.16;96328.81;6040838;23;20280;-87
2023/03/28 00:40:44;;;;;;;3.47;2.20;;;;;;;1.24;83.37;96330.94;6041786;23;20208;-87
2023/03/28 00:43:12;;;;;;;4.03;1.97;;;;;;;1.27;83.00;96338.47;6042950;23;20195;-87
2023/03/28 00:46:06;;;;;;;5.37;2.03;;;;;;;1.30;82.79;96347.72;6041143;23;20165;-87
2023/03/28 00:48:38;;;;;;;2.00;1.80;;;;;;;1.36;82.73;96347.44;6065193;23;20189;-87
2023/03/28 00:51:14;;;;;;;2.37;1.97;;;;;;;1.30;82.27;96340.88;6041535;23;20153;-86
2023/03/28 00:53:51;;;;;;;3.60;2.20;;;;;;;1.19;82.18;96345.66;6052043;23;20160;-86
2023/03/28 00:56:23;;;;;;;5.23;2.27;;;;;;;1.12;82.68;96342.56;6095467;23;20161;-87
2023/03/28 00:58:53;;;;;;;4.63;2.17;;;;;;;1.01;82.64;96346.53;6095901;23;20184;-88
2023/03/28 01:01:26;;;;;;;4.33;2.10;;;;;;;0.98;83.19;96341.56;6096218;23;20600;-87
2023/03/28 01:04:01;;;;;;;5.20;2.40;;;;;;;0.88;83.35;96342.84;6096695;23;20176;-87
2023/03/28 01:06:46;;;;;;;5.10;2.23;;;;;;;0.84;83.69;96350.66;6095825;23;20157;-86
2023/03/28 01:09:20;;;;;;;4.17;2.17;;;;;;;0.76;82.96;96355.28;6095985;23;20192;-86
2023/03/28 01:11:52;;;;;;;4.90;2.20;;;;;;;0.75;83.45;96356.19;6096127;23;20597;-88
2023/03/28 01:14:22;;;;;;;3.40;1.93;;;;;;;0.83;83.26;96354.13;6071433;23;20588;-87
2023/03/28 01:16:51;;;;;;;3.60;2.20;;;;;;;0.70;82.97;96349.63;6095452;23;20144;-88
2023/03/28 01:19:20;;;;;;;4.57;2.50;;;;;;;0.70;83.74;96354.72;6095624;23;20184;-87
2023/03/28 01:22:20;;;;;;;8.50;2.63;;;;;;;0.75;83.38;96361.31;6095957;23;20164;-87
2023/03/28 01:25:03;;;;;;;5.40;2.50;;;;;;;0.67;83.58;96359.97;6119101;23;20231;-87
2023/03/28 01:27:51;;;;;;;5.73;2.70;;;;;;;0.64;83.46;96355.84;6096472;23;20160;-88
2023/03/28 01:30:19;;;;;;;4.03;2.80;;;;;;;0.48;84.01;96359.97;6096015;23;20152;-87
2023/03/28 01:33:15;;;;;;;4.37;3.13;;;;;;;0.45;84.31;96363.50;6095705;23;20164;-87
2023/03/28 01:36:00;;;;;;;4.70;2.57;;;;;;;0.51;84.21;96364.94;6120717;23;20187;-87
2023/03/28 01:38:42;;;;;;;5.57;2.67;;;;;;;0.47;83.94;96371.09;6095806;23;20270;-87
2023/03/28 01:41:15;;;;;;;9.67;3.57;;;;;;;0.52;83.73;96371.69;6096501;23;20183;-87
2023/03/28 01:44:05;;;;;;;6.00;3.53;;;;;;;0.41;84.21;96369.59;6096473;23;20165;-87
2023/03/28 01:47:26;;;;;;;5.17;2.77;;;;;;;0.48;84.07;96367.63;6119274;23;20168;-87
2023/03/28 01:50:02;;;;;;;5.40;3.10;;;;;;;0.51;84.00;96362.38;6012546;23;20164;-87
2023/03/28 01:52:38;;;;;;;7.80;3.53;;;;;;;0.46;83.54;96365.16;6096617;23;20571;-87
2023/03/28 01:55:30;;;;;;;6.43;3.07;;;;;;;0.43;84.07;96360.16;6096164;23;20153;-86
2023/03/28 01:58:18;;;;;;;6.80;2.83;;;;;;;0.37;84.25;96367.28;6081098;23;20237;-86
2023/03/28 02:00:53;;;;;;;3.77;2.63;;;;;;;0.45;83.55;96363.50;6097214;23;20181;-87
2023/03/28 02:03:31;;;;;;;7.00;3.17;;;;;;;0.38;84.05;96364.66;6095876;23;20526;-87
2023/03/28 02:05:57;;;;;;;5.40;3.27;;;;;;;0.33;83.76;96361.44;6095541;23;20211;-87
2023/03/28 02:08:28;;;;;;;10.87;4.40;;;;;;;0.33;83.89;96369.09;6095703;23;20242;-86
2023/03/28 02:11:05;;;;;;;5.13;3.40;;;;;;;0.23;84.32;96365.28;6096246;23;20655;-88
2023/03/28 02:13:56;;;;;;;5.57;3.43;;;;;;;0.19;84.17;96368.88;6095634;23;20251;-86
2023/03/28 02:16:23;;;;;;;7.07;2.87;;;;;;;0.11;84.60;96364.09;6095309;23;20160;-87
2023/03/28 02:18:54;;;;;;;4.47;2.70;;;;;;;0.15;84.51;96370.72;6095580;23;20180;-88
2023/03/28 02:21:27;;;;;;;5.00;2.27;;;;;;;0.06;84.82;96368.53;6096478;23;20169;-87
2023/03/28 02:23:54;;;;;;;5.90;2.00;;;;;;;-0.03;85.05;96363.81;6096340;23;20157;-87
2023/03/28 02:26:30;;;;;;;3.80;2.40;;;;;;;-0.05;85.10;96360.50;6097091;23;20161;-86
2023/03/28 02:28:59;;;;;;;4.87;2.47;;;;;;;-0.02;84.60;96362.94;6098204;23;20187;-86
2023/03/28 02:31:46;;;;;;;4.47;2.70;;;;;;;-0.03;84.44;96358.72;6090521;23;20168;-86
2023/03/28 02:34:23;;;;;;;4.33;2.37;;;;;;;-0.14;84.64;96354.06;6096951;23;20156;-87
2023/03/28 02:37:27;;;;;;;6.30;2.70;;;;;;;-0.11;84.86;96363.31;6096646;23;20156;-87
2023/03/28 02:40:30;;;;;;;2.90;2.50;;;;;;;-0.11;84.85;96360.75;6098401;23;20176;-87
2023/03/28 02:43:40;;;;;;;6.03;2.17;;;;;;;-0.14;84.57;96358.34;6097986;23;20164;-88
2023/03/28 02:46:39;;;;;;;8.40;2.47;;;;;;;-0.21;84.90;96362.03;6122203;23;20267;-87
2023/03/28 02:49:44;;;;;;;;;;;;;;;;;;;;;
2023/03/28 05:16:04;;;;;;;4.93;3.23;;;;;;;-0.89;86.51;96392.72;6096187;23;20223;-87
2023/03/28 05:18:56;;;;;;;7.13;3.80;;;;;;;-0.87;85.88;96400.34;6046013;23;20208;-87
2023/03/28 06:58:59;;;;;;;5.60;3.00;;;;;;;1.39;75.99;96467.56;6075656;23;20191;31
2023/03/28 07:01:24;;;;;;;8.27;2.70;;;;;;;1.57;75.53;96469.28;6081322;23;20643;-81
2023/03/28 07:03:49;;;;;;;8.23;2.40;;;;;;;1.59;75.06;96461.53;6068472;23;20165;-81
2023/03/28 07:06:15;;;;;;;6.27;3.13;;;;;;;1.66;74.75;96468.03;6095493;23;20157;-82
2023/03/28 07:08:40;;;;;;;5.57;3.10;;;;;;;1.59;73.36;96467.53;6113862;23;20176;-81
2023/03/28 07:11:05;;;;;;;5.43;2.73;;;;;;;1.82;73.81;96463.88;6104382;23;20164;-80
2023/03/28 07:13:44;;;;;;;6.63;2.50;;;;;;;1.85;72.44;96463.72;6104345;23;20164;-84
2023/03/28 07:56:25;;;;;;;5.33;3.10;;;;;;;2.95;65.88;96519.03;6129801;23;20195;-85
2023/03/28 07:59:42;;;;;;;;;;;;;;;;;;;;;
2023/03/28 08:06:15;;;;;;;3.30;2.10;;;;;;;2.77;65.69;96521.63;6069706;23;20189;-84
2023/03/28 08:09:15;;;;;;;7.17;2.50;;;;;;;2.99;65.39;96536.75;6024633;23;21055;-86
2023/03/28 08:16:09;;;;;;;6.83;2.73;;;;;;;2.95;64.94;96530.13;5871732;24;20170;-82
2023/03/28 08:18:58;;;;;;;5.00;2.63;;;;;;;2.85;65.00;96531.50;5884153;24;20188;-83
2023/03/28 08:21:34;;;;;;;6.50;2.67;;;;;;;2.92;64.68;96524.34;5872446;24;20232;-85
2023/03/28 08:24:08;;;;;;;4.23;2.33;;;;;;;2.88;64.65;96513.38;5849911;24;20505;-84
2023/03/28 08:32:21;;;;;;;5.97;2.73;;;;;;;3.37;62.59;96516.03;6129620;23;20199;-82
2023/03/28 08:34:53;;;;;;;5.70;3.20;;;;;;;3.45;62.53;96525.91;6128740;23;20170;-86
2023/03/28 08:37:28;;;;;;;6.57;2.87;;;;;;;3.74;62.43;96519.22;6130364;23;20160;-82
2023/03/28 09:15:46;;;;;;;;;;;;;;;;;;;;;
2023/03/28 11:08:16;;;;;;;2.53;1.23;;;;;;;6.32;45.24;96486.78;6155064;23;20183;-83
2023/03/28 11:11:34;;;;;;;2.60;1.53;;;;;;;6.58;46.41;96477.34;6170247;23;20238;-83
2023/03/28 11:14:52;;;;;;;;;;;;;;;;;;;;;
2023/03/28 11:18:10;;;;;;;4.07;1.40;;;;;;;6.69;44.11;96471.47;5964188;24;20191;-84
2023/03/28 11:20:55;;;;;;;3.10;1.50;;;;;;;6.83;43.38;96461.09;5939372;24;20229;-83
2023/03/28 11:23:42;;;;;;;5.70;1.80;;;;;;;6.95;43.33;96473.16;5960176;24;20205;-84
2023/03/28 11:26:11;;;;;;;2.83;1.10;;;;;;;7.19;43.62;96468.09;5959141;24;20515;-82
2023/03/28 11:29:05;;;;;;;3.80;1.73;;;;;;;7.14;43.46;96464.16;5959324;24;20212;-83
2023/03/28 11:31:36;;;;;;;4.30;1.50;;;;;;;6.88;42.20;96453.84;5959330;24;20156;-83
2023/03/28 11:34:20;;;;;;;3.57;1.50;;;;;;;7.04;42.50;96457.03;5958637;24;20168;-86
2023/03/28 11:36:57;;;;;;;6.20;2.97;;;;;;;7.03;44.43;96457.97;5956331;24;20615;-84
2023/03/28 11:39:33;;;;;;;3.83;2.30;;;;;;;7.32;45.23;96450.00;5957540;24;20689;-85
2023/03/28 11:42:02;;;;;;;4.50;1.50;;;;;;;7.22;44.75;96444.63;5958432;24;20174;-85
2023/03/28 11:44:34;;;;;;;3.57;1.80;;;;;;;7.27;44.67;96434.81;5935469;24;20163;-86
2023/03/28 11:47:03;;;;;;;5.23;1.57;;;;;;;7.18;43.24;96435.47;5960448;24;20164;-86
2023/03/28 11:49:42;;;;;;;5.27;1.27;;;;;;;7.10;44.23;96437.72;5959768;24;20197;-86
2023/03/28 11:52:25;;;;;;;2.77;1.23;;;;;;;7.07;43.48;96418.13;5950554;24;20156;-87
2023/03/28 11:55:06;;;;;;;3.23;1.87;;;;;;;7.49;43.48;96425.56;6091961;23;20176;-85
2023/03/28 11:57:45;;;;;;;3.43;1.90;;;;;;;6.71;44.81;96423.97;6122321;23;20208;-86
2023/03/28 12:00:13;;;;;;;7.37;1.70;;;;;;;7.33;44.74;96418.06;6107590;23;20168;-83
2023/03/28 12:02:54;;;;;;;7.50;2.90;;;;;;;7.63;43.47;96415.94;6073921;23;20187;-82
2023/03/28 12:05:33;;;;;;;20.80;10.73;;;;;;;8.13;41.89;96419.25;6073650;23;20229;-84
2023/03/28 12:08:10;;;;;;;2.07;1.33;;;;;;;7.99;41.93;96414.22;6073998;23;20184;-85
2023/03/28 12:10:35;;;;;;;4.23;2.10;;;;;;;8.06;42.91;96414.63;6074250;23;20149;-84
2023/03/28 12:13:14;;;;;;;6.50;3.07;;;;;;;7.75;40.65;96413.41;6097475;23;20180;-84
2023/03/28 12:15:48;;;;;;;4.53;1.30;;;;;;;7.88;40.23;96414.19;6073010;23;20211;-85
2023/03/28 12:18:21;;;;;;;3.77;1.13;;;;;;;8.13;40.35;96405.50;6072337;23;20214;-84
2023/03/28 12:20:59;;;;;;;5.17;2.30;;;;;;;8.28;40.74;96394.00;6073495;23;20173;-84
2023/03/28 12:23:38;;;;;;;2.60;1.30;;;;;;;8.12;39.62;96393.47;6073027;23;20144;-83
2023/03/28 12:26:17;;;;;;;4.10;1.47;;;;;;;8.29;39.97;96392.22;6072211;23;20148;-82
2023/03/28 12:28:50;;;;;;;3.20;1.20;;;;;;;8.58;41.92;96383.19;6069005;23;20746;-84
2023/03/28 12:31:40;;;;;;;2.47;1.43;;;;;;;8.61;43.25;96377.75;6069663;23;20200;-83
2023/03/28 12:34:20;;;;;;;2.87;1.57;;;;;;;8.94;41.49;96365.78;6070795;23;20585;-82
2023/03/28 12:36:52;;;;;;;3.67;1.67;;;;;;;8.93;42.47;96364.97;6070229;23;20149;-85
2023/03/28 12:39:52;;;;;;;3.10;1.13;;;;;;;8.89;40.69;96368.72;6095848;23;20857;-85
2023/03/28 12:42:19;;;;;;;1.17;1.00;;;;;;;8.88;38.84;96358.50;6096904;23;20235;-83
2023/03/28 12:44:52;;;;;;;2.27;1.20;;;;;;;9.01;41.04;96359.19;6048127;23;20607;-83
2023/03/28 12:47:25;;;;;;;3.10;0.90;;;;;;;8.85;39.97;96353.56;6071758;23;20145;-82
2023/03/28 13:18:43;;;;;;;2.33;1.13;;;;;;;8.72;40.69;96343.28;5999816;23;20210;-84
2023/03/28 13:42:56;;;;;;;2.73;1.10;;;;;;;9.65;40.27;96304.88;6029447;23;20220;-77
2023/03/28 13:45:24;;;;;;;3.73;1.27;;;;;;;9.27;39.14;96298.38;6041728;23;20155;-81
2023/03/28 13:47:49;;;;;;;2.03;1.30;;;;;;;9.45;38.62;96300.44;5999448;23;20243;-82
2023/03/28 13:50:21;;;;;;;2.20;1.10;;;;;;;9.38;37.93;96289.78;6043206;23;20597;-81
2023/03/28 13:52:46;;;;;;;4.17;1.30;;;;;;;9.61;38.66;96291.31;6043500;23;20161;-78
2023/03/28 13:55:30;;;;;;;3.57;1.20;;;;;;;9.59;38.56;96288.03;6043978;23;20205;-81
2023/03/28 13:58:00;;;;;;;2.20;1.20;;;;;;;9.91;37.97;96287.22;6044898;23;20181;-84
2023/03/28 14:00:26;;;;;;;2.20;1.00;;;;;;;9.92;38.71;96288.84;6045650;23;20550;-82
2023/03/28 14:03:10;;;;;;;2.40;0.93;;;;;;;9.64;38.86;96285.09;6045868;23;20169;-84
2023/03/28 14:05:42;;;;;;;3.53;1.60;;;;;;;9.39;37.94;96282.81;6043374;23;20181;-85
2023/03/28 14:08:13;;;;;;;2.93;1.30;;;;;;;9.80;37.23;96275.09;6047366;23;20780;-84
2023/03/28 14:10:42;;;;;;;1.77;1.30;;;;;;;9.28;38.08;96270.72;6047060;23;20161;-84
2023/03/28 14:13:16;;;;;;;2.53;1.30;;;;;;;9.51;39.01;96271.44;6045297;23;20474;-84
2023/03/28 14:15:42;;;;;;;2.83;1.20;;;;;;;9.62;38.35;96266.22;6068122;23;20169;-84
2023/03/28 14:18:18;;;;;;;1.40;1.03;;;;;;;9.51;37.90;96267.09;6044976;23;20208;-82
2023/03/28 14:20:46;;;;;;;1.77;1.10;;;;;;;9.46;37.18;96260.66;6043816;23;20514;-83
2023/03/28 14:23:52;;;;;;;3.43;1.70;;;;;;;9.69;38.05;96254.41;6047034;23;20169;-84
2023/03/28 14:26:20;;;;;;;2.13;1.33;;;;;;;10.26;37.54;96260.16;5979750;23;20603;-83
2023/03/28 14:37:19;;;;;;;;;;;;;;;;;;;;;
2023/03/28 14:39:58;;;;;;;2.67;1.60;;;;;;;10.26;37.21;96244.59;6016214;23;20698;-84
2023/03/28 14:42:30;;;;;;;3.23;1.30;;;;;;;10.08;37.21;96241.72;6016499;23;20199;-85
2023/03/28 14:45:06;;;;;;;3.47;1.20;;;;;;;10.13;37.74;96240.38;5995465;23;20213;-85
2023/03/28 14:47:32;;;;;;;1.53;1.10;;;;;;;10.42;36.34;96239.72;6019069;23;20162;-82
2023/03/28 15:18:07;;;;;;;;;;;;;;;;;;;;;
2023/03/28 15:21:10;;;;;;;2.67;1.13;;;;;;;9.60;37.72;96191.16;6017072;23;20261;-84
2023/03/28 15:23:55;;;;;;;2.87;1.50;;;;;;;9.63;36.84;96184.91;5982864;23;20234;-84
2023/03/28 15:26:38;;;;;;;1.27;1.17;;;;;;;9.66;37.48;96187.25;5993558;23;20226;-83
2023/03/28 15:29:32;;;;;;;4.67;1.30;;;;;;;9.74;37.50;96176.22;5991354;23;20182;-84
2023/03/28 15:32:24;;;;;;;1.97;1.30;;;;;;;9.68;37.96;96167.19;5998519;23;20499;-85
2023/03/28 15:35:30;;;;;;;3.17;1.73;;;;;;;9.71;35.98;96158.31;5889720;24;20185;-86
2023/03/28 15:38:39;;;;;;;;;;;;;;;;;;;;;
2023/03/28 15:41:27;;;;;;;2.43;1.67;;;;;;;9.16;37.92;96157.66;5907652;24;20224;-84
2023/03/28 15:44:32;;;;;;;3.07;1.73;;;;;;;8.98;38.55;96153.00;5923958;24;20224;-85
2023/03/28 15:47:29;;;;;;;3.70;1.70;;;;;;;8.52;38.12;96150.66;5869760;24;20230;-85
2023/03/28 15:50:07;;;;;;;3.53;1.90;;;;;;;8.55;38.56;96150.41;5869630;24;20154;-85
2023/03/28 15:52:36;;;;;;;4.10;1.53;;;;;;;8.61;37.63;96138.75;5853212;24;20253;-83
2023/03/28 15:55:04;;;;;;;4.93;1.60;;;;;;;8.41;38.70;96148.09;5831481;24;20181;-83
2023/03/28 15:57:48;;;;;;;2.17;1.60;;;;;;;8.48;38.66;96150.09;5826670;24;20170;-84
2023/03/28 16:00:34;;;;;;;3.57;2.00;;;;;;;8.16;38.90;96143.94;5828410;24;20259;-85
2023/03/28 16:03:33;;;;;;;4.13;1.60;;;;;;;8.15;39.61;96145.72;5847170;24;20622;-84
2023/03/28 16:07:05;;;;;;;3.10;1.70;;;;;;;8.36;38.60;96145.03;5909920;24;20161;-85
2023/03/28 16:09:37;;;;;;;2.10;1.37;;;;;;;8.63;38.32;96150.63;5874055;24;20186;-84
2023/03/28 16:12:12;;;;;;;3.10;1.83;;;;;;;8.77;38.32;96147.78;5846717;24;20170;-84
2023/03/28 16:14:44;;;;;;;2.07;1.60;;;;;;;8.65;38.99;96138.38;5823753;24;20166;-83
2023/03/28 16:20:24;;;;;;;3.73;1.70;;;;;;;8.48;39.79;96137.13;5875364;24;20219;-78
2023/03/28 16:22:50;;;;;;;2.33;1.57;;;;;;;8.34;39.98;96132.19;5877790;24;20169;-81
2023/03/28 16:25:15;;;;;;;2.23;1.67;;;;;;;8.50;39.81;96131.84;5900858;24;20158;-81
2023/03/28 16:27:41;;;;;;;5.77;1.90;;;;;;;8.58;40.03;96124.28;5903498;24;20254;-80
2023/03/28 16:30:16;;;;;;;4.77;1.70;;;;;;;8.42;40.25;96123.84;5906583;24;20287;-80
2023/03/28 16:32:41;;;;;;;4.80;1.60;;;;;;;8.77;38.96;96119.28;5907111;24;20255;-81
2023/03/28 16:35:08;;;;;;;3.70;1.50;;;;;;;8.84;39.67;96119.63;5908209;24;20161;-80
2023/03/28 16:37:35;;;;;;;5.10;1.63;;;;;;;8.77;40.17;96126.25;5906036;24;20294;-82
2023/03/28 16:40:03;;;;;;;3.37;2.00;;;;;;;8.63;39.37;96122.16;5905408;24;20261;-86
2023/03/28 16:42:29;;;;;;;6.57;4.63;;;;;;;8.71;39.88;96106.81;5895988;24;20199;-86
